sensor_id;sensor_type;location;lat;lon;timestamp;P1;P2;P0
55518;PMS5003;41724;51.176;-0.708;2023-04-25T00:02:15;11;10;
55518;PMS5003;41724;51.176;-0.708;2023-04-25T00:04:42;11;10;
55518;PMS5003;41724;51.176;-0.708;2023-04-25T00:07:09;11;9;
55518;PMS5003;41724;51.176;-0.708;2023-04-25T00:09:36;9;8;
55518;PMS5003;41724;51.176;-0.708;2023-04-25T00:12:04;8;7;
55518;PMS5003;41724;51.176;-0.708;2023-04-25T00:14:31;11;10;
55518;PMS5003;41724;51.176;-0.708;2023-04-25T00:16:58;10;9;
55518;PMS5003;41724;51.176;-0.708;2023-04-25T00:19:25;8;8;
55518;PMS5003;41724;51.176;-0.708;2023-04-25T00:21:53;7;7;
55518;PMS5003;41724;51.176;-0.708;2023-04-25T00:24:20;7;6;
55518;PMS5003;41724;51.176;-0.708;2023-04-25T00:26:48;12;11;
55518;PMS5003;41724;51.176;-0.708;2023-04-25T00:29:15;10;8;
55518;PMS5003;41724;51.176;-0.708;2023-04-25T00:31:42;11;9;
55518;PMS5003;41724;51.176;-0.708;2023-04-25T00:34:09;9;8;
55518;PMS5003;41724;51.176;-0.708;2023-04-25T00:36:36;9;7;
55518;PMS5003;41724;51.176;-0.708;2023-04-25T00:39:03;8;8;
55518;PMS5003;41724;51.176;-0.708;2023-04-25T00:41:30;7;7;
55518;PMS5003;41724;51.176;-0.708;2023-04-25T00:43:58;10;8;
55518;PMS5003;41724;51.176;-0.708;2023-04-25T00:46:27;6;6;
55518;PMS5003;41724;51.176;-0.708;2023-04-25T00:48:54;10;9;
55518;PMS5003;41724;51.176;-0.708;2023-04-25T00:51:21;8;8;
55518;PMS5003;41724;51.176;-0.708;2023-04-25T00:53:49;5;5;
55518;PMS5003;41724;51.176;-0.708;2023-04-25T00:56:17;8;6;
55518;PMS5003;41724;51.176;-0.708;2023-04-25T00:58:44;7;6;
55518;PMS5003;41724;51.176;-0.708;2023-04-25T01:01:12;9;8;
55518;PMS5003;41724;51.176;-0.708;2023-04-25T01:03:40;9;7;
55518;PMS5003;41724;51.176;-0.708;2023-04-25T01:06:08;11;7;
55518;PMS5003;41724;51.176;-0.708;2023-04-25T01:08:36;6;6;
55518;PMS5003;41724;51.176;-0.708;2023-04-25T01:11:05;9;7;
55518;PMS5003;41724;51.176;-0.708;2023-04-25T01:13:32;7;6;
55518;PMS5003;41724;51.176;-0.708;2023-04-25T01:16:00;9;8;
55518;PMS5003;41724;51.176;-0.708;2023-04-25T01:18:28;5;4;
55518;PMS5003;41724;51.176;-0.708;2023-04-25T01:20:56;10;9;
55518;PMS5003;41724;51.176;-0.708;2023-04-25T01:23:28;4;4;
55518;PMS5003;41724;51.176;-0.708;2023-04-25T01:25:56;6;6;
55518;PMS5003;41724;51.176;-0.708;2023-04-25T01:28:23;6;5;
55518;PMS5003;41724;51.176;-0.708;2023-04-25T01:30:50;5;4;
55518;PMS5003;41724;51.176;-0.708;2023-04-25T01:33:18;5;5;
55518;PMS5003;41724;51.176;-0.708;2023-04-25T01:35:47;9;7;
55518;PMS5003;41724;51.176;-0.708;2023-04-25T01:38:14;7;6;
55518;PMS5003;41724;51.176;-0.708;2023-04-25T01:40:41;6;6;
55518;PMS5003;41724;51.176;-0.708;2023-04-25T01:43:12;5;5;
55518;PMS5003;41724;51.176;-0.708;2023-04-25T01:45:40;9;8;
55518;PMS5003;41724;51.176;-0.708;2023-04-25T01:48:08;7;6;
55518;PMS5003;41724;51.176;-0.708;2023-04-25T01:50:37;4;4;
55518;PMS5003;41724;51.176;-0.708;2023-04-25T01:53:07;7;5;
55518;PMS5003;41724;51.176;-0.708;2023-04-25T01:55:36;4;4;
55518;PMS5003;41724;51.176;-0.708;2023-04-25T01:58:03;7;7;
55518;PMS5003;41724;51.176;-0.708;2023-04-25T02:00:30;7;6;
55518;PMS5003;41724;51.176;-0.708;2023-04-25T02:02:57;8;8;
55518;PMS5003;41724;51.176;-0.708;2023-04-25T02:05:25;5;5;
55518;PMS5003;41724;51.176;-0.708;2023-04-25T02:07:52;6;5;
55518;PMS5003;41724;51.176;-0.708;2023-04-25T02:10:19;7;7;
55518;PMS5003;41724;51.176;-0.708;2023-04-25T02:12:46;6;6;
55518;PMS5003;41724;51.176;-0.708;2023-04-25T02:15:14;7;7;
55518;PMS5003;41724;51.176;-0.708;2023-04-25T02:17:41;4;4;
55518;PMS5003;41724;51.176;-0.708;2023-04-25T02:20:08;5;4;
55518;PMS5003;41724;51.176;-0.708;2023-04-25T02:22:36;7;6;
55518;PMS5003;41724;51.176;-0.708;2023-04-25T02:25:03;7;6;
55518;PMS5003;41724;51.176;-0.708;2023-04-25T02:27:31;4;4;
55518;PMS5003;41724;51.176;-0.708;2023-04-25T02:29:58;8;7;
55518;PMS5003;41724;51.176;-0.708;2023-04-25T02:32:26;7;7;
55518;PMS5003;41724;51.176;-0.708;2023-04-25T02:34:53;5;5;
55518;PMS5003;41724;51.176;-0.708;2023-04-25T02:37:20;5;4;
55518;PMS5003;41724;51.176;-0.708;2023-04-25T02:39:47;7;6;
55518;PMS5003;41724;51.176;-0.708;2023-04-25T02:42:15;8;8;
55518;PMS5003;41724;51.176;-0.708;2023-04-25T02:44:42;4;4;
55518;PMS5003;41724;51.176;-0.708;2023-04-25T02:47:09;4;4;
55518;PMS5003;41724;51.176;-0.708;2023-04-25T02:49:36;5;5;
55518;PMS5003;41724;51.176;-0.708;2023-04-25T02:52:03;8;8;
55518;PMS5003;41724;51.176;-0.708;2023-04-25T02:54:31;9;9;
55518;PMS5003;41724;51.176;-0.708;2023-04-25T02:56:58;5;5;
55518;PMS5003;41724;51.176;-0.708;2023-04-25T02:59:25;7;6;
55518;PMS5003;41724;51.176;-0.708;2023-04-25T03:01:53;6;6;
55518;PMS5003;41724;51.176;-0.708;2023-04-25T03:04:20;5;5;
55518;PMS5003;41724;51.176;-0.708;2023-04-25T03:06:47;4;4;
55518;PMS5003;41724;51.176;-0.708;2023-04-25T03:09:14;5;5;
55518;PMS5003;41724;51.176;-0.708;2023-04-25T03:11:42;5;5;
55518;PMS5003;41724;51.176;-0.708;2023-04-25T03:14:11;6;5;
55518;PMS5003;41724;51.176;-0.708;2023-04-25T03:16:38;9;6;
55518;PMS5003;41724;51.176;-0.708;2023-04-25T03:19:05;6;6;
55518;PMS5003;41724;51.176;-0.708;2023-04-25T03:21:32;9;7;
55518;PMS5003;41724;51.176;-0.708;2023-04-25T03:24:01;9;7;
55518;PMS5003;41724;51.176;-0.708;2023-04-25T03:26:29;6;5;
55518;PMS5003;41724;51.176;-0.708;2023-04-25T03:28:57;8;5;
55518;PMS5003;41724;51.176;-0.708;2023-04-25T03:31:24;4;4;
55518;PMS5003;41724;51.176;-0.708;2023-04-25T03:33:51;11;7;
55518;PMS5003;41724;51.176;-0.708;2023-04-25T03:36:18;7;7;
55518;PMS5003;41724;51.176;-0.708;2023-04-25T03:38:46;9;5;
55518;PMS5003;41724;51.176;-0.708;2023-04-25T03:41:13;9;7;
55518;PMS5003;41724;51.176;-0.708;2023-04-25T03:43:40;5;4;
55518;PMS5003;41724;51.176;-0.708;2023-04-25T03:46:08;6;6;
55518;PMS5003;41724;51.176;-0.708;2023-04-25T03:48:35;4;4;
55518;PMS5003;41724;51.176;-0.708;2023-04-25T03:51:02;5;5;
55518;PMS5003;41724;51.176;-0.708;2023-04-25T03:53:30;4;3;
55518;PMS5003;41724;51.176;-0.708;2023-04-25T03:55:57;9;5;
55518;PMS5003;41724;51.176;-0.708;2023-04-25T03:58:24;5;3;
55518;PMS5003;41724;51.176;-0.708;2023-04-25T04:00:52;4;4;
55518;PMS5003;41724;51.176;-0.708;2023-04-25T04:03:19;8;8;
55518;PMS5003;41724;51.176;-0.708;2023-04-25T04:05:46;6;5;
55518;PMS5003;41724;51.176;-0.708;2023-04-25T04:08:14;7;7;
55518;PMS5003;41724;51.176;-0.708;2023-04-25T04:10:41;5;4;
55518;PMS5003;41724;51.176;-0.708;2023-04-25T04:13:08;10;10;
55518;PMS5003;41724;51.176;-0.708;2023-04-25T04:15:35;5;5;
55518;PMS5003;41724;51.176;-0.708;2023-04-25T04:18:03;8;6;
55518;PMS5003;41724;51.176;-0.708;2023-04-25T04:20:30;9;9;
55518;PMS5003;41724;51.176;-0.708;2023-04-25T04:22:58;8;8;
55518;PMS5003;41724;51.176;-0.708;2023-04-25T04:25:25;6;6;
55518;PMS5003;41724;51.176;-0.708;2023-04-25T04:27:52;9;8;
55518;PMS5003;41724;51.176;-0.708;2023-04-25T04:30:19;12;11;
55518;PMS5003;41724;51.176;-0.708;2023-04-25T04:32:47;16;13;
55518;PMS5003;41724;51.176;-0.708;2023-04-25T04:35:15;10;8;
55518;PMS5003;41724;51.176;-0.708;2023-04-25T04:37:42;9;9;
55518;PMS5003;41724;51.176;-0.708;2023-04-25T04:40:09;10;9;
55518;PMS5003;41724;51.176;-0.708;2023-04-25T04:42:37;12;12;
55518;PMS5003;41724;51.176;-0.708;2023-04-25T04:45:04;14;9;
55518;PMS5003;41724;51.176;-0.708;2023-04-25T04:47:32;15;15;
55518;PMS5003;41724;51.176;-0.708;2023-04-25T04:50:00;15;13;
55518;PMS5003;41724;51.176;-0.708;2023-04-25T04:52:27;11;11;
55518;PMS5003;41724;51.176;-0.708;2023-04-25T04:54:54;11;10;
55518;PMS5003;41724;51.176;-0.708;2023-04-25T04:57:21;8;8;
55518;PMS5003;41724;51.176;-0.708;2023-04-25T04:59:49;9;9;
55518;PMS5003;41724;51.176;-0.708;2023-04-25T05:02:16;10;10;
55518;PMS5003;41724;51.176;-0.708;2023-04-25T05:04:43;11;10;
55518;PMS5003;41724;51.176;-0.708;2023-04-25T05:07:10;11;10;
55518;PMS5003;41724;51.176;-0.708;2023-04-25T05:09:38;8;8;
55518;PMS5003;41724;51.176;-0.708;2023-04-25T05:12:06;11;10;
55518;PMS5003;41724;51.176;-0.708;2023-04-25T05:14:33;12;11;
55518;PMS5003;41724;51.176;-0.708;2023-04-25T05:17:01;14;11;
55518;PMS5003;41724;51.176;-0.708;2023-04-25T05:19:28;15;11;
55518;PMS5003;41724;51.176;-0.708;2023-04-25T05:21:56;8;8;
55518;PMS5003;41724;51.176;-0.708;2023-04-25T05:24:23;9;8;
55518;PMS5003;41724;51.176;-0.708;2023-04-25T05:26:50;9;8;
55518;PMS5003;41724;51.176;-0.708;2023-04-25T05:29:17;11;10;
55518;PMS5003;41724;51.176;-0.708;2023-04-25T05:31:45;13;13;
55518;PMS5003;41724;51.176;-0.708;2023-04-25T05:34:12;15;12;
55518;PMS5003;41724;51.176;-0.708;2023-04-25T05:36:39;16;15;
55518;PMS5003;41724;51.176;-0.708;2023-04-25T05:39:06;24;22;
55518;PMS5003;41724;51.176;-0.708;2023-04-25T05:41:34;17;15;
55518;PMS5003;41724;51.176;-0.708;2023-04-25T05:44:01;27;24;
55518;PMS5003;41724;51.176;-0.708;2023-04-25T05:46:28;22;18;
55518;PMS5003;41724;51.176;-0.708;2023-04-25T05:48:55;15;12;
55518;PMS5003;41724;51.176;-0.708;2023-04-25T05:51:22;14;14;
55518;PMS5003;41724;51.176;-0.708;2023-04-25T05:53:50;15;13;
55518;PMS5003;41724;51.176;-0.708;2023-04-25T05:56:17;8;6;
55518;PMS5003;41724;51.176;-0.708;2023-04-25T05:58:44;9;8;
55518;PMS5003;41724;51.176;-0.708;2023-04-25T06:01:11;6;6;
55518;PMS5003;41724;51.176;-0.708;2023-04-25T06:03:39;8;8;
55518;PMS5003;41724;51.176;-0.708;2023-04-25T06:06:06;9;9;
55518;PMS5003;41724;51.176;-0.708;2023-04-25T06:08:33;6;5;
55518;PMS5003;41724;51.176;-0.708;2023-04-25T06:11:00;8;8;
55518;PMS5003;41724;51.176;-0.708;2023-04-25T06:13:28;12;11;
55518;PMS5003;41724;51.176;-0.708;2023-04-25T06:15:55;8;8;
55518;PMS5003;41724;51.176;-0.708;2023-04-25T06:18:22;10;9;
55518;PMS5003;41724;51.176;-0.708;2023-04-25T06:20:49;7;7;
55518;PMS5003;41724;51.176;-0.708;2023-04-25T06:23:16;11;9;
55518;PMS5003;41724;51.176;-0.708;2023-04-25T06:25:43;8;6;
55518;PMS5003;41724;51.176;-0.708;2023-04-25T06:28:11;6;5;
55518;PMS5003;41724;51.176;-0.708;2023-04-25T06:30:38;8;6;
55518;PMS5003;41724;51.176;-0.708;2023-04-25T06:33:05;8;6;
55518;PMS5003;41724;51.176;-0.708;2023-04-25T06:35:33;5;5;
55518;PMS5003;41724;51.176;-0.708;2023-04-25T06:38:00;9;7;
55518;PMS5003;41724;51.176;-0.708;2023-04-25T06:40:27;6;6;
55518;PMS5003;41724;51.176;-0.708;2023-04-25T06:42:54;9;6;
55518;PMS5003;41724;51.176;-0.708;2023-04-25T06:45:22;5;5;
55518;PMS5003;41724;51.176;-0.708;2023-04-25T06:47:49;4;4;
55518;PMS5003;41724;51.176;-0.708;2023-04-25T06:50:16;4;4;
55518;PMS5003;41724;51.176;-0.708;2023-04-25T06:52:43;5;5;
55518;PMS5003;41724;51.176;-0.708;2023-04-25T06:55:11;4;4;
55518;PMS5003;41724;51.176;-0.708;2023-04-25T06:57:38;4;4;
55518;PMS5003;41724;51.176;-0.708;2023-04-25T07:00:05;3;3;
55518;PMS5003;41724;51.176;-0.708;2023-04-25T07:02:33;7;7;
55518;PMS5003;41724;51.176;-0.708;2023-04-25T07:05:00;7;7;
55518;PMS5003;41724;51.176;-0.708;2023-04-25T07:07:27;7;5;
55518;PMS5003;41724;51.176;-0.708;2023-04-25T07:09:55;5;5;
55518;PMS5003;41724;51.176;-0.708;2023-04-25T07:12:22;7;6;
55518;PMS5003;41724;51.176;-0.708;2023-04-25T07:14:49;5;4;
55518;PMS5003;41724;51.176;-0.708;2023-04-25T07:17:16;5;2;
55518;PMS5003;41724;51.176;-0.708;2023-04-25T07:19:43;5;5;
55518;PMS5003;41724;51.176;-0.708;2023-04-25T07:22:10;5;4;
55518;PMS5003;41724;51.176;-0.708;2023-04-25T07:24:38;5;4;
55518;PMS5003;41724;51.176;-0.708;2023-04-25T07:27:05;8;7;
55518;PMS5003;41724;51.176;-0.708;2023-04-25T07:29:32;5;5;
55518;PMS5003;41724;51.176;-0.708;2023-04-25T07:31:59;5;5;
55518;PMS5003;41724;51.176;-0.708;2023-04-25T07:34:27;4;4;
55518;PMS5003;41724;51.176;-0.708;2023-04-25T07:36:54;3;3;
55518;PMS5003;41724;51.176;-0.708;2023-04-25T07:39:21;4;4;
55518;PMS5003;41724;51.176;-0.708;2023-04-25T07:41:48;4;3;
55518;PMS5003;41724;51.176;-0.708;2023-04-25T07:44:16;5;3;
55518;PMS5003;41724;51.176;-0.708;2023-04-25T07:46:43;6;5;
55518;PMS5003;41724;51.176;-0.708;2023-04-25T07:49:10;6;5;
55518;PMS5003;41724;51.176;-0.708;2023-04-25T07:51:37;7;7;
55518;PMS5003;41724;51.176;-0.708;2023-04-25T07:54:05;3;3;
55518;PMS5003;41724;51.176;-0.708;2023-04-25T07:56:32;3;3;
55518;PMS5003;41724;51.176;-0.708;2023-04-25T07:58:59;5;4;
55518;PMS5003;41724;51.176;-0.708;2023-04-25T08:01:27;4;4;
55518;PMS5003;41724;51.176;-0.708;2023-04-25T08:03:55;7;6;
55518;PMS5003;41724;51.176;-0.708;2023-04-25T08:06:22;5;3;
55518;PMS5003;41724;51.176;-0.708;2023-04-25T08:08:49;6;4;
55518;PMS5003;41724;51.176;-0.708;2023-04-25T08:11:16;2;2;
55518;PMS5003;41724;51.176;-0.708;2023-04-25T08:13:43;4;4;
55518;PMS5003;41724;51.176;-0.708;2023-04-25T08:16:11;3;3;
55518;PMS5003;41724;51.176;-0.708;2023-04-25T08:18:38;4;4;
55518;PMS5003;41724;51.176;-0.708;2023-04-25T08:21:05;9;7;
55518;PMS5003;41724;51.176;-0.708;2023-04-25T08:23:32;4;4;
55518;PMS5003;41724;51.176;-0.708;2023-04-25T08:25:59;4;4;
55518;PMS5003;41724;51.176;-0.708;2023-04-25T08:28:26;3;2;
55518;PMS5003;41724;51.176;-0.708;2023-04-25T08:30:54;4;3;
55518;PMS5003;41724;51.176;-0.708;2023-04-25T08:33:21;11;9;
55518;PMS5003;41724;51.176;-0.708;2023-04-25T08:35:48;6;6;
55518;PMS5003;41724;51.176;-0.708;2023-04-25T08:38:15;4;4;
55518;PMS5003;41724;51.176;-0.708;2023-04-25T08:40:43;4;3;
55518;PMS5003;41724;51.176;-0.708;2023-04-25T08:43:11;6;4;
55518;PMS5003;41724;51.176;-0.708;2023-04-25T08:45:44;4;3;
55518;PMS5003;41724;51.176;-0.708;2023-04-25T08:48:11;3;3;
55518;PMS5003;41724;51.176;-0.708;2023-04-25T08:50:39;2;2;
55518;PMS5003;41724;51.176;-0.708;2023-04-25T08:53:11;4;3;
55518;PMS5003;41724;51.176;-0.708;2023-04-25T08:55:39;4;4;
55518;PMS5003;41724;51.176;-0.708;2023-04-25T08:58:08;4;3;
55518;PMS5003;41724;51.176;-0.708;2023-04-25T09:00:36;4;4;
55518;PMS5003;41724;51.176;-0.708;2023-04-25T09:03:04;3;3;
55518;PMS5003;41724;51.176;-0.708;2023-04-25T09:05:31;4;3;
55518;PMS5003;41724;51.176;-0.708;2023-04-25T09:07:59;6;4;
55518;PMS5003;41724;51.176;-0.708;2023-04-25T09:10:27;3;3;
55518;PMS5003;41724;51.176;-0.708;2023-04-25T09:13:02;3;3;
55518;PMS5003;41724;51.176;-0.708;2023-04-25T09:15:31;2;1;
55518;PMS5003;41724;51.176;-0.708;2023-04-25T09:17:58;2;2;
55518;PMS5003;41724;51.176;-0.708;2023-04-25T09:20:26;3;1;
55518;PMS5003;41724;51.176;-0.708;2023-04-25T09:23:02;2;2;
55518;PMS5003;41724;51.176;-0.708;2023-04-25T09:25:33;3;3;
55518;PMS5003;41724;51.176;-0.708;2023-04-25T09:28:03;4;3;
55518;PMS5003;41724;51.176;-0.708;2023-04-25T09:30:32;3;3;
55518;PMS5003;41724;51.176;-0.708;2023-04-25T09:33:04;5;3;
55518;PMS5003;41724;51.176;-0.708;2023-04-25T09:35:35;2;2;
55518;PMS5003;41724;51.176;-0.708;2023-04-25T09:38:06;3;3;
55518;PMS5003;41724;51.176;-0.708;2023-04-25T09:40:34;2;2;
55518;PMS5003;41724;51.176;-0.708;2023-04-25T09:43:10;4;3;
55518;PMS5003;41724;51.176;-0.708;2023-04-25T09:45:46;2;2;
55518;PMS5003;41724;51.176;-0.708;2023-04-25T09:48:18;4;4;
55518;PMS5003;41724;51.176;-0.708;2023-04-25T09:50:47;2;1;
55518;PMS5003;41724;51.176;-0.708;2023-04-25T09:53:30;2;2;
55518;PMS5003;41724;51.176;-0.708;2023-04-25T09:55:57;4;3;
55518;PMS5003;41724;51.176;-0.708;2023-04-25T09:58:26;3;3;
55518;PMS5003;41724;51.176;-0.708;2023-04-25T10:00:59;1;1;
55518;PMS5003;41724;51.176;-0.708;2023-04-25T10:03:28;1;1;
55518;PMS5003;41724;51.176;-0.708;2023-04-25T10:05:56;5;4;
55518;PMS5003;41724;51.176;-0.708;2023-04-25T10:08:27;2;2;
55518;PMS5003;41724;51.176;-0.708;2023-04-25T10:11:00;2;2;
55518;PMS5003;41724;51.176;-0.708;2023-04-25T10:13:29;1;1;
55518;PMS5003;41724;51.176;-0.708;2023-04-25T10:15:57;2;2;
55518;PMS5003;41724;51.176;-0.708;2023-04-25T10:18:26;2;2;
55518;PMS5003;41724;51.176;-0.708;2023-04-25T10:20:54;2;2;
55518;PMS5003;41724;51.176;-0.708;2023-04-25T10:23:23;2;2;
55518;PMS5003;41724;51.176;-0.708;2023-04-25T10:25:51;2;2;
55518;PMS5003;41724;51.176;-0.708;2023-04-25T10:28:20;5;4;
55518;PMS5003;41724;51.176;-0.708;2023-04-25T10:30:57;4;4;
55518;PMS5003;41724;51.176;-0.708;2023-04-25T10:33:32;3;3;
55518;PMS5003;41724;51.176;-0.708;2023-04-25T10:36:08;2;2;
55518;PMS5003;41724;51.176;-0.708;2023-04-25T10:38:36;3;3;
55518;PMS5003;41724;51.176;-0.708;2023-04-25T10:41:04;1;1;
55518;PMS5003;41724;51.176;-0.708;2023-04-25T10:43:33;4;3;
55518;PMS5003;41724;51.176;-0.708;2023-04-25T10:46:01;3;3;
55518;PMS5003;41724;51.176;-0.708;2023-04-25T10:48:29;4;3;
55518;PMS5003;41724;51.176;-0.708;2023-04-25T10:51:15;6;3;
55518;PMS5003;41724;51.176;-0.708;2023-04-25T10:53:44;2;2;
55518;PMS5003;41724;51.176;-0.708;2023-04-25T10:56:11;4;3;
55518;PMS5003;41724;51.176;-0.708;2023-04-25T10:58:43;1;1;
55518;PMS5003;41724;51.176;-0.708;2023-04-25T11:01:12;2;2;
55518;PMS5003;41724;51.176;-0.708;2023-04-25T11:03:41;4;3;
55518;PMS5003;41724;51.176;-0.708;2023-04-25T11:06:11;4;4;
55518;PMS5003;41724;51.176;-0.708;2023-04-25T11:08:50;2;2;
55518;PMS5003;41724;51.176;-0.708;2023-04-25T11:11:18;2;2;
55518;PMS5003;41724;51.176;-0.708;2023-04-25T11:13:47;4;3;
55518;PMS5003;41724;51.176;-0.708;2023-04-25T11:16:16;3;3;
55518;PMS5003;41724;51.176;-0.708;2023-04-25T11:18:44;3;3;
55518;PMS5003;41724;51.176;-0.708;2023-04-25T11:21:11;4;4;
55518;PMS5003;41724;51.176;-0.708;2023-04-25T11:23:39;3;3;
55518;PMS5003;41724;51.176;-0.708;2023-04-25T11:26:06;3;3;
55518;PMS5003;41724;51.176;-0.708;2023-04-25T11:28:33;1;1;
55518;PMS5003;41724;51.176;-0.708;2023-04-25T11:31:02;5;4;
55518;PMS5003;41724;51.176;-0.708;2023-04-25T11:33:30;3;2;
55518;PMS5003;41724;51.176;-0.708;2023-04-25T11:35:57;2;2;
55518;PMS5003;41724;51.176;-0.708;2023-04-25T11:38:25;5;3;
55518;PMS5003;41724;51.176;-0.708;2023-04-25T11:40:52;2;2;
55518;PMS5003;41724;51.176;-0.708;2023-04-25T11:43:20;3;3;
55518;PMS5003;41724;51.176;-0.708;2023-04-25T11:45:48;3;2;
55518;PMS5003;41724;51.176;-0.708;2023-04-25T11:48:16;4;4;
55518;PMS5003;41724;51.176;-0.708;2023-04-25T11:50:42;2;2;
55518;PMS5003;41724;51.176;-0.708;2023-04-25T11:53:10;2;2;
55518;PMS5003;41724;51.176;-0.708;2023-04-25T11:55:36;2;2;
55518;PMS5003;41724;51.176;-0.708;2023-04-25T11:58:04;1;1;
55518;PMS5003;41724;51.176;-0.708;2023-04-25T12:00:31;4;4;
55518;PMS5003;41724;51.176;-0.708;2023-04-25T12:02:58;3;3;
55518;PMS5003;41724;51.176;-0.708;2023-04-25T12:05:25;4;3;
55518;PMS5003;41724;51.176;-0.708;2023-04-25T12:07:54;4;3;
55518;PMS5003;41724;51.176;-0.708;2023-04-25T12:10:21;2;2;
55518;PMS5003;41724;51.176;-0.708;2023-04-25T12:12:49;2;2;
55518;PMS5003;41724;51.176;-0.708;2023-04-25T12:15:22;3;3;
55518;PMS5003;41724;51.176;-0.708;2023-04-25T12:17:51;3;3;
55518;PMS5003;41724;51.176;-0.708;2023-04-25T12:20:20;4;3;
55518;PMS5003;41724;51.176;-0.708;2023-04-25T12:22:50;6;5;
55518;PMS5003;41724;51.176;-0.708;2023-04-25T12:25:35;4;4;
55518;PMS5003;41724;51.176;-0.708;2023-04-25T12:28:10;4;3;
55518;PMS5003;41724;51.176;-0.708;2023-04-25T12:30:56;2;2;
55518;PMS5003;41724;51.176;-0.708;2023-04-25T12:33:24;3;3;
55518;PMS5003;41724;51.176;-0.708;2023-04-25T12:35:52;4;4;
55518;PMS5003;41724;51.176;-0.708;2023-04-25T12:38:21;4;4;
55518;PMS5003;41724;51.176;-0.708;2023-04-25T12:40:49;3;3;
55518;PMS5003;41724;51.176;-0.708;2023-04-25T12:43:16;5;4;
55518;PMS5003;41724;51.176;-0.708;2023-04-25T12:45:44;5;5;
55518;PMS5003;41724;51.176;-0.708;2023-04-25T12:48:11;3;2;
55518;PMS5003;41724;51.176;-0.708;2023-04-25T12:50:38;4;4;
55518;PMS5003;41724;51.176;-0.708;2023-04-25T12:53:05;3;3;
55518;PMS5003;41724;51.176;-0.708;2023-04-25T12:55:32;2;2;
55518;PMS5003;41724;51.176;-0.708;2023-04-25T12:57:59;3;3;
55518;PMS5003;41724;51.176;-0.708;2023-04-25T13:00:26;5;5;
55518;PMS5003;41724;51.176;-0.708;2023-04-25T13:02:53;5;4;
55518;PMS5003;41724;51.176;-0.708;2023-04-25T13:05:20;3;3;
55518;PMS5003;41724;51.176;-0.708;2023-04-25T13:07:47;4;4;
55518;PMS5003;41724;51.176;-0.708;2023-04-25T13:10:14;3;3;
55518;PMS5003;41724;51.176;-0.708;2023-04-25T13:12:40;3;3;
55518;PMS5003;41724;51.176;-0.708;2023-04-25T13:15:08;3;3;
55518;PMS5003;41724;51.176;-0.708;2023-04-25T13:17:36;5;5;
55518;PMS5003;41724;51.176;-0.708;2023-04-25T13:20:04;4;3;
55518;PMS5003;41724;51.176;-0.708;2023-04-25T13:22:32;5;4;
55518;PMS5003;41724;51.176;-0.708;2023-04-25T13:24:59;2;2;
55518;PMS5003;41724;51.176;-0.708;2023-04-25T13:27:26;2;2;
55518;PMS5003;41724;51.176;-0.708;2023-04-25T13:29:52;3;3;
55518;PMS5003;41724;51.176;-0.708;2023-04-25T13:32:20;5;4;
55518;PMS5003;41724;51.176;-0.708;2023-04-25T13:34:47;3;3;
55518;PMS5003;41724;51.176;-0.708;2023-04-25T13:37:14;7;7;
55518;PMS5003;41724;51.176;-0.708;2023-04-25T13:39:40;7;6;
55518;PMS5003;41724;51.176;-0.708;2023-04-25T13:42:07;6;6;
55518;PMS5003;41724;51.176;-0.708;2023-04-25T13:44:34;6;6;
55518;PMS5003;41724;51.176;-0.708;2023-04-25T13:47:00;4;4;
55518;PMS5003;41724;51.176;-0.708;2023-04-25T13:49:27;3;2;
55518;PMS5003;41724;51.176;-0.708;2023-04-25T13:51:54;5;5;
55518;PMS5003;41724;51.176;-0.708;2023-04-25T13:54:21;3;3;
55518;PMS5003;41724;51.176;-0.708;2023-04-25T13:56:47;3;3;
55518;PMS5003;41724;51.176;-0.708;2023-04-25T13:59:15;3;2;
55518;PMS5003;41724;51.176;-0.708;2023-04-25T14:01:42;4;3;
55518;PMS5003;41724;51.176;-0.708;2023-04-25T14:04:09;5;5;
55518;PMS5003;41724;51.176;-0.708;2023-04-25T14:06:36;3;3;
55518;PMS5003;41724;51.176;-0.708;2023-04-25T14:09:03;3;2;
55518;PMS5003;41724;51.176;-0.708;2023-04-25T14:11:30;4;4;
55518;PMS5003;41724;51.176;-0.708;2023-04-25T14:13:58;1;1;
55518;PMS5003;41724;51.176;-0.708;2023-04-25T14:16:25;4;4;
55518;PMS5003;41724;51.176;-0.708;2023-04-25T14:18:53;3;3;
55518;PMS5003;41724;51.176;-0.708;2023-04-25T14:21:20;3;3;
55518;PMS5003;41724;51.176;-0.708;2023-04-25T14:23:48;4;3;
55518;PMS5003;41724;51.176;-0.708;2023-04-25T14:26:15;3;3;
55518;PMS5003;41724;51.176;-0.708;2023-04-25T14:28:43;3;3;
55518;PMS5003;41724;51.176;-0.708;2023-04-25T14:31:10;3;3;
55518;PMS5003;41724;51.176;-0.708;2023-04-25T14:33:38;3;3;
55518;PMS5003;41724;51.176;-0.708;2023-04-25T14:36:05;16;16;
55518;PMS5003;41724;51.176;-0.708;2023-04-25T14:38:32;3;3;
55518;PMS5003;41724;51.176;-0.708;2023-04-25T14:40:59;2;2;
55518;PMS5003;41724;51.176;-0.708;2023-04-25T14:43:27;5;4;
55518;PMS5003;41724;51.176;-0.708;2023-04-25T14:45:54;15;14;
55518;PMS5003;41724;51.176;-0.708;2023-04-25T14:48:21;4;4;
55518;PMS5003;41724;51.176;-0.708;2023-04-25T14:50:49;4;4;
55518;PMS5003;41724;51.176;-0.708;2023-04-25T14:53:16;6;5;
55518;PMS5003;41724;51.176;-0.708;2023-04-25T14:55:43;4;4;
55518;PMS5003;41724;51.176;-0.708;2023-04-25T14:58:11;5;5;
55518;PMS5003;41724;51.176;-0.708;2023-04-25T15:00:38;3;3;
55518;PMS5003;41724;51.176;-0.708;2023-04-25T15:03:06;5;4;
55518;PMS5003;41724;51.176;-0.708;2023-04-25T15:05:34;5;5;
55518;PMS5003;41724;51.176;-0.708;2023-04-25T15:08:01;3;3;
55518;PMS5003;41724;51.176;-0.708;2023-04-25T15:10:29;3;3;
55518;PMS5003;41724;51.176;-0.708;2023-04-25T15:12:56;4;4;
55518;PMS5003;41724;51.176;-0.708;2023-04-25T15:15:23;3;3;
55518;PMS5003;41724;51.176;-0.708;2023-04-25T15:17:51;3;2;
55518;PMS5003;41724;51.176;-0.708;2023-04-25T15:20:19;2;2;
55518;PMS5003;41724;51.176;-0.708;2023-04-25T15:22:51;4;4;
55518;PMS5003;41724;51.176;-0.708;2023-04-25T15:25:18;4;4;
55518;PMS5003;41724;51.176;-0.708;2023-04-25T15:27:50;2;2;
55518;PMS5003;41724;51.176;-0.708;2023-04-25T15:30:18;5;5;
55518;PMS5003;41724;51.176;-0.708;2023-04-25T15:32:46;4;4;
55518;PMS5003;41724;51.176;-0.708;2023-04-25T15:35:15;4;4;
55518;PMS5003;41724;51.176;-0.708;2023-04-25T15:37:42;5;5;
55518;PMS5003;41724;51.176;-0.708;2023-04-25T15:40:11;4;3;
55518;PMS5003;41724;51.176;-0.708;2023-04-25T15:42:41;3;3;
55518;PMS5003;41724;51.176;-0.708;2023-04-25T15:45:10;5;5;
55518;PMS5003;41724;51.176;-0.708;2023-04-25T15:47:39;5;4;
55518;PMS5003;41724;51.176;-0.708;2023-04-25T15:50:07;3;3;
55518;PMS5003;41724;51.176;-0.708;2023-04-25T15:52:37;5;4;
55518;PMS5003;41724;51.176;-0.708;2023-04-25T15:55:06;5;5;
55518;PMS5003;41724;51.176;-0.708;2023-04-25T15:57:35;3;3;
55518;PMS5003;41724;51.176;-0.708;2023-04-25T16:00:03;4;4;
55518;PMS5003;41724;51.176;-0.708;2023-04-25T16:02:32;4;4;
55518;PMS5003;41724;51.176;-0.708;2023-04-25T16:05:00;5;4;
55518;PMS5003;41724;51.176;-0.708;2023-04-25T16:07:28;6;6;
55518;PMS5003;41724;51.176;-0.708;2023-04-25T16:09:55;4;4;
55518;PMS5003;41724;51.176;-0.708;2023-04-25T16:12:22;7;5;
55518;PMS5003;41724;51.176;-0.708;2023-04-25T16:14:50;4;4;
55518;PMS5003;41724;51.176;-0.708;2023-04-25T16:17:17;6;6;
55518;PMS5003;41724;51.176;-0.708;2023-04-25T16:19:45;6;6;
55518;PMS5003;41724;51.176;-0.708;2023-04-25T16:22:13;4;4;
55518;PMS5003;41724;51.176;-0.708;2023-04-25T16:24:41;11;10;
55518;PMS5003;41724;51.176;-0.708;2023-04-25T16:27:10;8;7;
55518;PMS5003;41724;51.176;-0.708;2023-04-25T16:29:37;11;10;
55518;PMS5003;41724;51.176;-0.708;2023-04-25T16:32:17;15;13;
55518;PMS5003;41724;51.176;-0.708;2023-04-25T16:34:45;10;9;
55518;PMS5003;41724;51.176;-0.708;2023-04-25T16:37:12;12;9;